Time;durP1;ratioP1;P1;durP2;ratioP2;P2;SDS_P1;SDS_P2;PMS_P1;PMS_P2;Temp;Humidity;BMP_temperature;BMP_pressure;BME280_temperature;BME280_humidity;BME280_pressure;Samples;Min_cycle;Max_cycle;Signal;HPM_P1;HPM_P2
2023/12/15 00:01:51;;;;;;;33.92;17.85;;;;;;;6.80;65.93;100042.84;7738615;32;37119;-83
2023/12/15 00:06:08;;;;;;;35.03;17.42;;;;;;;6.49;66.47;100053.87;7720964;32;39575;-83
2023/12/15 00:10:24;;;;;;;30.70;17.05;;;;;;;6.63;66.00;100059.84;7711791;32;40023;-83
2023/12/15 00:14:40;;;;;;;35.00;16.92;;;;;;;6.52;65.85;100063.38;7711371;32;38823;-83
2023/12/15 00:18:57;;;;;;;30.05;17.60;;;;;;;6.73;64.74;100072.78;7711762;32;37800;-83
2023/12/15 00:23:14;;;;;;;33.03;17.33;;;;;;;6.42;65.83;100074.03;7719432;32;39336;-83
2023/12/15 00:27:30;;;;;;;35.60;18.00;;;;;;;6.72;65.38;100073.84;7738457;32;40116;-83
2023/12/15 00:31:47;;;;;;;35.65;17.80;;;;;;;6.68;65.65;100081.63;7738380;32;37651;-83
2023/12/15 00:36:03;;;;;;;32.53;16.80;;;;;;;6.67;65.79;100088.09;7737564;32;37082;-82
2023/12/15 00:40:22;;;;;;;32.67;17.75;;;;;;;6.91;65.37;100091.56;7734912;32;39310;-83
2023/12/15 00:44:38;;;;;;;32.60;17.08;;;;;;;6.69;66.40;100096.00;7711430;32;39029;-82
2023/12/15 00:48:55;;;;;;;31.42;16.48;;;;;;;6.79;66.14;100092.69;7711466;32;38523;-82
2023/12/15 00:53:11;;;;;;;29.23;16.48;;;;;;;6.93;65.91;100100.31;7711450;32;37002;-82
2023/12/15 00:57:27;;;;;;;30.25;16.73;;;;;;;6.78;66.13;100108.13;7711404;32;39249;-82
2023/12/15 01:01:44;;;;;;;31.25;18.20;;;;;;;6.50;67.68;100114.28;7711105;32;40777;-83
2023/12/15 01:06:00;;;;;;;34.63;17.30;;;;;;;6.73;67.29;100116.97;7729141;32;38830;-82
2023/12/15 01:10:16;;;;;;;33.88;16.90;;;;;;;6.79;66.71;100133.34;7722322;32;37288;-83
2023/12/15 01:14:33;;;;;;;32.80;16.92;;;;;;;6.58;67.09;100132.88;7711022;32;39267;-82
2023/12/15 01:18:49;;;;;;;34.60;16.83;;;;;;;6.55;67.36;100138.78;7711099;32;40612;-82
2023/12/15 01:23:05;;;;;;;29.77;15.05;;;;;;;6.48;66.82;100143.50;7710940;32;37923;-82
2023/12/15 01:27:23;;;;;;;29.48;16.23;;;;;;;6.47;66.88;100142.66;7710918;32;38108;-82
2023/12/15 01:31:39;;;;;;;32.63;17.37;;;;;;;6.44;66.46;100153.16;7722160;32;39083;-82
2023/12/15 01:35:56;;;;;;;31.08;15.82;;;;;;;6.34;66.61;100154.53;7710783;32;40835;-82
2023/12/15 01:40:12;;;;;;;36.33;17.85;;;;;;;6.13;67.10;100163.25;7737370;32;38839;-83
2023/12/15 01:44:29;;;;;;;33.17;17.02;;;;;;;6.33;66.28;100171.03;7737672;32;37182;-82
2023/12/15 01:48:45;;;;;;;37.30;16.65;;;;;;;6.10;67.19;100178.06;7736040;32;39932;-82
2023/12/15 01:53:01;;;;;;;34.28;17.48;;;;;;;6.42;66.07;100177.75;7737146;32;40821;-81
2023/12/15 01:57:18;;;;;;;32.25;17.33;;;;;;;5.84;68.86;100171.16;7736998;32;38664;-83
2023/12/15 02:01:34;;;;;;;30.95;17.62;;;;;;;6.14;67.68;100176.56;7736901;32;38070;-82
2023/12/15 02:05:51;;;;;;;33.55;17.48;;;;;;;6.30;67.38;100179.63;7718238;32;40110;-82
2023/12/15 02:10:08;;;;;;;33.47;16.52;;;;;;;6.39;67.12;100173.63;7709795;32;39908;-82
2023/12/15 02:14:24;;;;;;;30.98;16.42;;;;;;;6.35;67.35;100182.47;7709682;32;37970;-82
2023/12/15 02:18:40;;;;;;;36.88;17.35;;;;;;;6.12;68.32;100184.09;7709878;32;37288;-82
2023/12/15 02:22:59;;;;;;;31.33;17.27;;;;;;;6.32;67.90;100181.03;7709775;32;39895;-82
2023/12/15 02:27:16;;;;;;;33.72;16.77;;;;;;;6.47;67.79;100190.56;7710162;32;39974;-83
2023/12/15 02:31:32;;;;;;;31.45;16.27;;;;;;;6.47;67.58;100193.28;7713337;32;37976;-83
2023/12/15 02:35:50;;;;;;;32.28;15.43;;;;;;;6.67;67.18;100196.47;7734877;32;38107;-82
2023/12/15 02:40:07;;;;;;;31.35;16.50;;;;;;;6.87;66.14;100198.00;7736046;32;40057;-82
2023/12/15 02:44:23;;;;;;;32.55;17.42;;;;;;;6.90;65.77;100201.06;7736089;32;40684;-83
2023/12/15 02:48:39;;;;;;;28.77;15.68;;;;;;;6.61;67.02;100213.69;7735805;32;38214;-82
2023/12/15 02:52:56;;;;;;;31.67;16.20;;;;;;;6.93;65.93;100206.03;7735729;32;37258;-83
2023/12/15 02:57:12;;;;;;;32.75;18.12;;;;;;;6.46;68.20;100210.63;7735920;32;39439;-80
2023/12/15 03:01:28;;;;;;;37.28;17.37;;;;;;;6.88;66.75;100210.50;7722708;32;40878;-80
2023/12/15 03:05:45;;;;;;;33.25;16.10;;;;;;;6.93;66.61;100229.56;7712656;32;37577;-82
2023/12/15 03:10:01;;;;;;;33.45;17.62;;;;;;;7.03;65.97;100237.13;7712746;32;37792;-82
2023/12/15 03:14:18;;;;;;;30.35;16.02;;;;;;;7.13;65.75;100230.03;7712413;32;39307;-82
2023/12/15 03:18:35;;;;;;;29.87;15.45;;;;;;;7.05;65.97;100235.81;7712567;32;41031;-81
2023/12/15 03:22:51;;;;;;;27.23;14.52;;;;;;;7.33;65.16;100228.84;7712442;32;38196;-82
2023/12/15 03:27:07;;;;;;;31.40;15.40;;;;;;;7.00;66.02;100243.81;7713446;32;37141;-82
2023/12/15 03:31:24;;;;;;;25.67;14.15;;;;;;;7.08;65.96;100246.19;7738248;32;40030;-82
2023/12/15 03:35:40;;;;;;;29.67;14.98;;;;;;;7.30;65.24;100245.56;7737627;32;39847;-79
2023/12/15 03:39:57;;;;;;;26.75;14.60;;;;;;;7.09;65.35;100258.69;7738864;32;38021;-78
2023/12/15 03:44:13;;;;;;;22.62;12.95;;;;;;;7.51;64.17;100255.78;7750478;32;37831;-82
2023/12/15 03:48:29;;;;;;;27.67;13.98;;;;;;;7.33;64.63;100273.03;7750460;32;39383;-82
2023/12/15 03:52:46;;;;;;;26.60;14.30;;;;;;;7.41;64.42;100287.28;7738934;32;40742;-82
2023/12/15 03:57:02;;;;;;;25.40;13.80;;;;;;;7.23;64.94;100288.28;7724627;32;38206;-82
2023/12/15 04:01:19;;;;;;;26.42;13.98;;;;;;;7.06;65.40;100286.28;7726095;32;38138;-81
2023/12/15 04:05:35;;;;;;;26.83;15.18;;;;;;;6.79;66.38;100296.75;7738799;32;39951;-80
2023/12/15 04:09:51;;;;;;;26.67;14.35;;;;;;;7.00;65.46;100294.50;7737810;32;39956;-80
2023/12/15 04:14:08;;;;;;;30.83;16.35;;;;;;;7.22;64.57;100300.16;7737729;32;37949;-83
2023/12/15 04:18:25;;;;;;;28.08;15.00;;;;;;;7.11;66.76;100309.97;7738489;32;37169;-82
2023/12/15 04:22:42;;;;;;;27.62;15.20;;;;;;;7.12;65.60;100311.59;7738560;32;40081;-83
2023/12/15 04:26:58;;;;;;;26.52;14.95;;;;;;;6.92;65.81;100325.53;7712289;32;39976;-84
2023/12/15 04:31:15;;;;;;;25.05;13.30;;;;;;;7.26;64.45;100325.75;7711591;32;38794;-83
2023/12/15 04:35:31;;;;;;;25.37;13.55;;;;;;;6.84;65.45;100334.81;7722703;32;37015;-82
2023/12/15 04:39:47;;;;;;;25.02;13.48;;;;;;;7.15;64.38;100328.22;7722966;32;39335;-82
2023/12/15 04:44:04;;;;;;;28.40;13.82;;;;;;;6.95;64.96;100333.16;7711638;32;39689;-82
2023/12/15 04:48:20;;;;;;;31.67;14.45;;;;;;;6.64;65.86;100351.41;7711408;32;38094;-82
2023/12/15 04:52:36;;;;;;;27.92;14.98;;;;;;;6.61;65.89;100368.12;7721583;32;37243;-82
2023/12/15 04:56:53;;;;;;;25.27;14.23;;;;;;;6.58;65.71;100366.69;7738070;32;38988;-82
2023/12/15 05:01:13;;;;;;;24.98;13.77;;;;;;;6.35;66.21;100361.22;7737250;32;39793;-81
2023/12/15 05:05:30;;;;;;;27.60;14.70;;;;;;;6.24;66.52;100368.19;7738071;32;37758;-83
2023/12/15 05:09:49;;;;;;;28.27;14.13;;;;;;;6.19;67.02;100366.22;7738018;32;37975;-83
2023/12/15 05:14:06;;;;;;;26.52;14.57;;;;;;;6.33;66.61;100374.12;7737798;32;40033;-82
2023/12/15 05:18:22;;;;;;;29.02;14.95;;;;;;;6.38;66.39;100380.53;7737914;32;39915;-83
2023/12/15 05:22:38;;;;;;;25.65;14.45;;;;;;;6.17;67.14;100389.97;7713487;32;38992;-82
2023/12/15 05:26:55;;;;;;;26.37;14.20;;;;;;;6.38;66.31;100395.94;7710915;32;36951;-83
2023/12/15 05:31:11;;;;;;;25.50;13.30;;;;;;;6.40;65.53;100401.97;7710937;32;39826;-82
2023/12/15 05:35:27;;;;;;;24.30;13.20;;;;;;;6.24;65.95;100414.25;7710819;32;40872;-82
2023/12/15 05:39:44;;;;;;;23.20;12.18;;;;;;;6.34;65.90;100425.34;7710663;32;38763;-83
2023/12/15 05:44:01;;;;;;;27.67;13.43;;;;;;;6.24;65.67;100429.66;7734631;32;37836;-82
2023/12/15 05:48:17;;;;;;;24.67;12.85;;;;;;;6.51;64.76;100430.16;7748888;32;39060;-82
2023/12/15 05:52:34;;;;;;;24.27;12.55;;;;;;;6.33;65.23;100437.25;7727129;32;40751;-82
2023/12/15 05:56:50;;;;;;;20.62;11.35;;;;;;;6.28;65.26;100433.56;7721647;32;38803;-83
2023/12/15 06:01:06;;;;;;;21.52;11.45;;;;;;;6.18;65.78;100439.53;7710244;32;37305;-82
2023/12/15 06:05:23;;;;;;;22.62;10.25;;;;;;;6.08;66.07;100447.34;7710262;32;39338;-83
2023/12/15 06:09:39;;;;;;;21.02;10.30;;;;;;;5.33;68.72;100456.38;7710126;32;40665;-82
2023/12/15 06:13:56;;;;;;;20.08;9.95;;;;;;;5.97;66.54;100463.28;7732913;32;37983;-82
2023/12/15 06:18:13;;;;;;;16.83;9.40;;;;;;;5.68;67.54;100472.94;7736806;32;36845;-82
2023/12/15 06:22:29;;;;;;;18.15;8.80;;;;;;;5.42;68.62;100484.81;7736624;32;39128;-82
2023/12/15 06:26:46;;;;;;;17.30;9.38;;;;;;;5.23;69.10;100494.75;7725835;32;40233;-82
2023/12/15 06:31:02;;;;;;;15.60;8.15;;;;;;;5.30;68.90;100505.50;7709524;32;37873;-82
2023/12/15 06:35:18;;;;;;;16.08;9.05;;;;;;;5.47;68.65;100520.12;7712491;32;37942;-83
2023/12/15 06:39:35;;;;;;;21.17;10.93;;;;;;;5.61;67.86;100513.56;7712750;32;40451;-83
2023/12/15 06:43:51;;;;;;;34.90;17.17;;;;;;;5.97;66.65;100522.84;7714568;32;39818;-82
2023/12/15 06:48:07;;;;;;;21.15;9.98;;;;;;;6.12;65.85;100540.59;7730576;32;38132;-80
2023/12/15 06:52:24;;;;;;;17.65;9.10;;;;;;;6.12;65.56;100549.56;7723075;32;36009;-80
2023/12/15 06:56:40;;;;;;;15.27;7.72;;;;;;;6.21;65.17;100552.81;7719783;32;40102;-83
2023/12/15 07:00:56;;;;;;;14.57;8.38;;;;;;;5.35;67.56;100578.69;7730437;32;40958;-80
2023/12/15 07:05:13;;;;;;;12.40;7.12;;;;;;;6.07;65.23;100581.03;7712654;32;38614;-79
2023/12/15 07:09:29;;;;;;;11.73;6.57;;;;;;;5.80;65.71;100592.09;7723320;32;37755;-81
2023/12/15 07:13:45;;;;;;;12.05;6.62;;;;;;;5.67;66.41;100597.59;7712404;32;39908;-82
2023/12/15 07:18:01;;;;;;;9.77;6.20;;;;;;;5.57;66.51;100614.28;7721696;32;40896;-85
2023/12/15 07:22:18;;;;;;;13.57;6.82;;;;;;;5.16;68.15;100616.41;7737501;32;38059;-82
2023/12/15 07:26:36;;;;;;;13.15;6.25;;;;;;;5.42;66.82;100615.44;7739225;32;37136;-71
2023/12/15 07:30:52;;;;;;;10.30;5.97;;;;;;;5.43;66.37;100629.78;7739247;32;39476;-81
2023/12/15 07:35:09;;;;;;;11.45;6.15;;;;;;;5.53;66.43;100640.94;7721190;32;39869;-82
2023/12/15 07:39:40;;;;;;;12.43;6.60;;;;;;;5.45;66.91;100652.88;7712274;32;37907;-81
2023/12/15 07:43:56;;;;;;;10.73;5.75;;;;;;;5.53;66.59;100661.78;7712134;32;37202;-82
2023/12/15 07:48:13;;;;;;;12.18;6.07;;;;;;;5.48;66.19;100675.94;7723174;32;39306;-78
2023/12/15 07:52:29;;;;;;;11.45;6.10;;;;;;;4.98;67.32;100676.56;7732457;32;40653;-80
2023/12/15 07:56:46;;;;;;;9.57;5.85;;;;;;;5.43;66.70;100681.16;7712095;32;37842;-80
2023/12/15 08:01:02;;;;;;;10.18;5.97;;;;;;;5.93;64.27;100684.00;7712121;32;37031;-80
2023/12/15 08:05:18;;;;;;;9.75;5.72;;;;;;;5.96;63.73;100688.97;7722682;32;39498;-84
2023/12/15 08:09:35;;;;;;;10.30;5.62;;;;;;;5.88;64.39;100700.06;7735397;32;39961;-83
2023/12/15 08:13:51;;;;;;;9.68;5.37;;;;;;;5.80;65.24;100708.44;7725148;32;37716;-86
2023/12/15 08:18:07;;;;;;;10.48;5.53;;;;;;;6.14;63.71;100715.31;7735707;32;37010;-82
2023/12/15 08:22:24;;;;;;;10.73;5.43;;;;;;;5.93;63.39;100727.31;7726420;32;40259;-81
2023/12/15 08:26:40;;;;;;;12.00;5.90;;;;;;;6.15;63.25;100729.69;7738351;32;41023;-83
2023/12/15 08:30:58;;;;;;;9.05;4.95;;;;;;;6.31;62.81;100739.13;7737949;32;37893;-82
2023/12/15 08:35:15;;;;;;;9.80;5.50;;;;;;;6.11;62.44;100744.72;7738471;32;36096;-82
2023/12/15 08:39:31;;;;;;;9.48;5.45;;;;;;;6.35;61.90;100746.59;7738466;32;39089;-83
2023/12/15 08:43:48;;;;;;;9.48;5.45;;;;;;;6.09;63.04;100757.59;7738277;32;40784;-83
2023/12/15 08:48:04;;;;;;;10.13;5.60;;;;;;;6.29;62.11;100758.31;7738277;32;37920;-83
2023/12/15 08:52:21;;;;;;;12.37;5.70;;;;;;;6.67;60.65;100765.50;7738248;32;37086;-82
2023/12/15 08:56:37;;;;;;;9.35;5.18;;;;;;;6.76;60.16;100769.59;7737642;32;39124;-83
2023/12/15 09:00:53;;;;;;;9.23;5.32;;;;;;;6.73;59.84;100770.03;7738072;32;39990;-83
2023/12/15 09:05:10;;;;;;;11.82;5.85;;;;;;;6.83;59.76;100779.53;7738074;32;37735;-83
2023/12/15 09:09:47;;;;;;;11.57;6.22;;;;;;;7.01;58.49;100785.00;7737796;32;37330;-82
2023/12/15 09:14:03;;;;;;;10.25;6.03;;;;;;;6.88;59.25;100795.97;7737938;32;39312;-83
2023/12/15 09:18:20;;;;;;;11.40;6.75;;;;;;;7.03;59.49;100807.28;7737754;32;39997;-83
2023/12/15 09:22:38;;;;;;;11.98;6.55;;;;;;;6.94;60.68;100824.91;7736535;32;37849;-82
2023/12/15 09:26:54;;;;;;;11.18;6.22;;;;;;;7.07;59.07;100811.22;7737713;32;37394;-82
2023/12/15 09:31:11;;;;;;;12.50;5.62;;;;;;;6.85;60.03;100820.81;7737857;32;39382;-82
2023/12/15 09:35:28;;;;;;;9.60;5.75;;;;;;;6.67;60.41;100830.53;7737514;32;40784;-84
2023/12/15 09:39:44;;;;;;;9.93;5.53;;;;;;;6.51;60.79;100836.50;7737550;32;39484;-82
2023/12/15 09:44:01;;;;;;;10.35;5.75;;;;;;;7.07;59.69;100860.03;7737471;32;37040;-83
2023/12/15 09:48:18;;;;;;;9.80;5.20;;;;;;;6.48;59.60;100855.91;7737595;32;39267;-83
2023/12/15 09:52:38;;;;;;;9.48;5.53;;;;;;;6.45;60.51;100859.03;7737299;32;39905;-83
2023/12/15 09:56:55;;;;;;;10.80;5.60;;;;;;;6.71;60.02;100860.72;7737172;32;37930;-83
2023/12/15 10:01:12;;;;;;;10.98;6.10;;;;;;;6.31;60.51;100869.12;7737032;32;37059;-82
2023/12/15 10:05:29;;;;;;;14.65;5.82;;;;;;;6.27;59.27;100868.72;7737062;32;40052;-83
2023/12/15 10:09:46;;;;;;;14.48;6.72;;;;;;;6.35;60.13;100870.38;7739255;32;39917;-83
2023/12/15 10:14:07;;;;;;;10.77;6.50;;;;;;;6.68;59.11;100853.06;7751293;32;37809;-82
2023/12/15 10:18:24;;;;;;;10.75;6.03;;;;;;;6.77;59.28;100874.22;7740228;32;37335;-83
2023/12/15 10:23:07;;;;;;;11.30;6.10;;;;;;;7.39;58.89;100888.94;7749715;32;38001;-82
2023/12/15 10:27:24;;;;;;;11.35;6.00;;;;;;;7.20;57.53;100891.63;7732442;32;39850;-83
2023/12/15 10:31:41;;;;;;;11.32;5.60;;;;;;;7.43;56.37;100890.97;7736453;32;37938;-83
2023/12/15 10:36:00;;;;;;;12.73;5.65;;;;;;;7.34;56.48;100895.03;7750213;32;37174;-83
2023/12/15 10:40:17;;;;;;;14.40;6.47;;;;;;;7.62;56.08;100893.72;7748387;32;40506;-83
2023/12/15 10:44:35;;;;;;;13.30;6.22;;;;;;;7.55;55.12;100911.97;7750194;32;40802;-82
2023/12/15 10:48:53;;;;;;;11.05;6.05;;;;;;;7.68;54.50;100911.81;7749176;32;38004;-83
2023/12/15 10:53:11;;;;;;;13.80;5.90;;;;;;;7.52;55.70;100921.37;7736236;32;37852;-84
2023/12/15 10:57:28;;;;;;;10.30;5.85;;;;;;;7.69;55.02;100919.75;7750445;32;39176;-85
2023/12/15 11:01:46;;;;;;;12.85;6.45;;;;;;;7.65;56.09;100917.69;7739415;32;40083;-83
2023/12/15 11:06:03;;;;;;;14.02;7.35;;;;;;;7.84;54.78;100915.81;7737510;32;40061;-86
2023/12/15 11:10:19;;;;;;;14.73;7.32;;;;;;;7.95;55.25;100915.09;7726852;32;36926;-80
2023/12/15 11:14:38;;;;;;;17.87;7.90;;;;;;;7.92;54.91;100929.09;7737800;32;39318;-81
2023/12/15 11:18:56;;;;;;;11.15;6.32;;;;;;;8.26;55.26;100940.38;7712222;32;39952;-80
2023/12/15 11:23:12;;;;;;;13.18;6.82;;;;;;;8.56;54.36;100928.75;7724326;32;36994;-82
2023/12/15 11:27:28;;;;;;;14.18;7.97;;;;;;;8.57;53.73;100924.97;7721722;32;37862;-83
2023/12/15 11:31:45;;;;;;;15.43;6.70;;;;;;;8.02;54.59;100928.56;7712391;32;39303;-82
2023/12/15 11:36:06;;;;;;;12.18;6.95;;;;;;;8.35;54.46;100938.22;7712269;32;40821;-83
2023/12/15 11:40:24;;;;;;;13.13;6.72;;;;;;;7.79;53.70;100949.06;7719924;32;38556;-83
2023/12/15 11:44:43;;;;;;;12.98;6.60;;;;;;;7.95;54.11;100954.97;7737285;32;37146;-83
2023/12/15 11:49:01;;;;;;;15.70;7.22;;;;;;;8.20;53.59;100953.00;7737976;32;39312;-83
2023/12/15 11:53:18;;;;;;;14.40;6.07;;;;;;;8.25;52.90;100965.91;7736106;32;40782;-83
2023/12/15 11:57:38;;;;;;;13.38;6.40;;;;;;;8.30;52.67;100965.25;7746402;32;37904;-84
2023/12/15 12:01:55;;;;;;;13.70;6.78;;;;;;;8.43;52.33;100962.34;7735696;32;36770;-84
2023/12/15 12:06:20;;;;;;;14.80;6.35;;;;;;;8.30;53.37;100959.81;7734088;32;40263;-84
2023/12/15 12:10:41;;;;;;;13.57;7.00;;;;;;;8.32;51.79;100957.69;7718614;32;40596;-84
2023/12/15 12:15:07;;;;;;;14.70;7.12;;;;;;;8.42;52.09;100960.69;7738637;32;37651;-84
2023/12/15 12:19:23;;;;;;;13.30;6.57;;;;;;;9.00;50.86;100951.09;7727328;32;37067;-84
2023/12/15 12:23:39;;;;;;;10.65;5.78;;;;;;;8.57;51.62;100960.28;7730371;32;39320;-84
2023/12/15 12:28:01;;;;;;;13.10;6.28;;;;;;;8.09;52.91;100976.31;7721548;32;39713;-85
2023/12/15 12:32:17;;;;;;;12.88;5.95;;;;;;;8.57;51.11;100974.75;7710901;32;38229;-84
2023/12/15 12:36:35;;;;;;;12.00;5.60;;;;;;;9.20;50.95;100975.28;7711725;32;37153;-83
2023/12/15 12:40:51;;;;;;;8.90;5.03;;;;;;;9.27;50.58;100986.06;7711751;32;39872;-85
2023/12/15 12:45:08;;;;;;;9.98;5.03;;;;;;;9.26;49.09;100998.84;7711675;32;40740;-85
2023/12/15 12:49:25;;;;;;;10.15;5.07;;;;;;;9.45;48.42;101001.47;7711531;32;37802;-86
2023/12/15 12:53:42;;;;;;;10.73;5.68;;;;;;;9.58;46.64;101014.88;7711490;32;38023;-87
2023/12/15 12:58:00;;;;;;;12.37;5.50;;;;;;;9.34;46.97;101017.53;7711480;32;40011;-86
2023/12/15 13:02:16;;;;;;;18.02;9.70;;;;;;;9.48;46.83;101017.34;7711305;32;39907;-86
2023/12/15 13:06:38;;;;;;;11.95;5.55;;;;;;;9.59;46.70;101030.97;7711349;32;38928;-86
2023/12/15 13:10:54;;;;;;;12.32;5.68;;;;;;;9.85;45.83;101033.44;7711698;32;37649;-86
2023/12/15 13:15:14;;;;;;;12.98;5.65;;;;;;;9.90;47.08;101039.03;7705330;32;186406;-86
2023/12/15 13:19:31;;;;;;;10.88;5.62;;;;;;;10.44;46.31;101053.34;7711431;32;39854;-86
2023/12/15 13:23:47;;;;;;;11.30;5.85;;;;;;;9.94;45.97;101076.47;7710961;32;38605;-86
2023/12/15 13:28:05;;;;;;;11.40;5.10;;;;;;;9.54;45.25;101076.31;7710881;32;37138;-86
2023/12/15 13:32:23;;;;;;;9.52;5.10;;;;;;;9.90;45.30;101075.28;7711080;32;40149;-86
2023/12/15 13:36:39;;;;;;;9.25;4.62;;;;;;;9.85;44.19;101093.38;7710844;32;40647;-86
2023/12/15 13:40:56;;;;;;;9.60;4.70;;;;;;;9.50;45.92;101113.19;7722072;32;37580;-86
2023/12/15 13:45:15;;;;;;;8.77;4.32;;;;;;;9.78;46.36;101113.41;7710861;32;36985;-86
2023/12/15 13:49:32;;;;;;;7.47;3.72;;;;;;;11.10;43.02;101113.06;7710824;32;39289;-87
2023/12/15 13:53:49;;;;;;;6.32;3.33;;;;;;;15.70;32.89;101089.78;7710563;32;40229;-87
2023/12/15 13:58:05;;;;;;;6.50;2.95;;;;;;;18.16;26.41;101087.87;7710450;32;37716;-87
2023/12/15 14:02:22;;;;;;;12.43;4.35;;;;;;;20.18;24.01;101090.34;7710392;32;36927;-85
2023/12/15 14:06:39;;;;;;;7.72;3.67;;;;;;;16.83;27.47;101117.12;7710287;32;39465;-85
2023/12/15 14:10:55;;;;;;;10.82;4.05;;;;;;;14.22;30.33;101142.19;7710204;32;39702;-84
2023/12/15 14:15:11;;;;;;;4.10;2.70;;;;;;;13.64;32.23;101144.72;7709874;32;38136;-86
2023/12/15 14:19:28;;;;;;;4.30;2.03;;;;;;;12.51;34.31;101146.91;7710054;32;37062;-87
2023/12/15 14:23:44;;;;;;;4.37;2.30;;;;;;;11.38;33.46;101168.75;7709916;32;39364;-86
2023/12/15 14:28:00;;;;;;;6.53;3.37;;;;;;;10.67;34.33;101171.63;7709735;32;39980;-85
2023/12/15 14:32:17;;;;;;;6.65;3.17;;;;;;;9.85;34.84;101183.25;7709608;32;39249;-85
2023/12/15 14:36:33;;;;;;;4.95;2.62;;;;;;;9.33;34.89;101190.06;7705794;32;36854;-87
2023/12/15 14:40:50;;;;;;;5.28;2.92;;;;;;;9.25;35.78;101201.28;7707515;32;39273;-85
2023/12/15 14:45:06;;;;;;;5.03;2.53;;;;;;;8.86;37.92;101214.25;7708448;32;40070;-85
2023/12/15 14:49:22;;;;;;;3.03;2.30;;;;;;;8.04;38.69;101236.09;7708341;32;38496;-85
2023/12/15 14:53:39;;;;;;;3.42;2.33;;;;;;;7.80;37.88;101235.81;7709185;32;37564;-86
2023/12/15 14:57:55;;;;;;;3.15;2.25;;;;;;;7.61;39.33;101250.34;7712159;32;39098;-85
2023/12/15 15:02:11;;;;;;;2.25;2.05;;;;;;;7.35;39.31;101249.41;7712107;32;39942;-84
2023/12/15 15:06:28;;;;;;;3.33;2.40;;;;;;;7.56;38.87;101261.00;7712197;32;38604;-84
2023/12/15 15:10:54;;;;;;;4.07;2.45;;;;;;;7.42;39.54;101261.06;7712145;32;37988;-84
2023/12/15 15:15:11;;;;;;;4.03;2.50;;;;;;;7.15;39.44;101265.72;7711996;32;39944;-84
2023/12/15 15:19:28;;;;;;;3.97;2.40;;;;;;;6.98;39.19;101287.03;7711958;32;39643;-84
2023/12/15 15:23:44;;;;;;;2.25;2.05;;;;;;;6.98;40.26;101295.16;7711844;32;38710;-84
2023/12/15 15:28:01;;;;;;;2.70;2.50;;;;;;;6.75;42.17;101288.31;7712177;32;37294;-84
2023/12/15 15:32:17;;;;;;;4.03;2.65;;;;;;;6.69;41.91;101288.31;7712014;32;40012;-84
2023/12/15 15:36:37;;;;;;;4.65;2.95;;;;;;;6.43;42.35;101305.41;7711958;32;40969;-84
2023/12/15 15:40:53;;;;;;;4.90;3.33;;;;;;;6.21;43.49;101313.75;7711541;32;38146;-84
2023/12/15 15:45:10;;;;;;;7.05;3.95;;;;;;;6.16;41.85;101321.66;7711695;32;37731;-84
2023/12/15 15:49:27;;;;;;;5.03;3.67;;;;;;;5.81;44.80;101324.41;7711503;32;39436;-84
2023/12/15 15:53:44;;;;;;;7.00;4.20;;;;;;;5.88;44.51;101336.13;7711732;32;40733;-84
2023/12/15 15:58:00;;;;;;;6.50;4.18;;;;;;;5.71;46.08;101345.59;7711363;32;37962;-84
2023/12/15 16:02:16;;;;;;;7.80;4.32;;;;;;;5.42;46.29;101342.97;7711529;32;37218;-84
2023/12/15 16:06:33;;;;;;;6.95;4.20;;;;;;;5.25;47.83;101355.97;7710399;32;39874;-84
2023/12/15 16:10:50;;;;;;;7.22;4.10;;;;;;;5.22;48.28;101364.47;7711137;32;40042;-84
2023/12/15 16:15:07;;;;;;;13.35;4.10;;;;;;;5.08;48.73;101373.53;7711203;32;38630;-84
2023/12/15 16:19:24;;;;;;;7.75;3.67;;;;;;;5.05;48.90;101379.31;7711567;32;37902;-84
2023/12/15 16:23:40;;;;;;;6.12;3.40;;;;;;;4.99;48.44;101385.53;7710952;32;39383;-84
2023/12/15 16:27:56;;;;;;;4.10;3.12;;;;;;;4.82;48.51;101393.91;7710964;32;40821;-83
2023/12/15 16:32:14;;;;;;;4.35;3.40;;;;;;;4.85;46.85;101406.22;7711101;32;37723;-84
2023/12/15 16:36:30;;;;;;;4.35;3.28;;;;;;;4.86;46.61;101414.13;7711199;32;37119;-84
2023/12/15 16:40:46;;;;;;;7.53;3.50;;;;;;;4.57;46.02;101425.03;7710801;32;39243;-84
2023/12/15 16:45:03;;;;;;;4.37;3.12;;;;;;;4.43;46.06;101434.88;7711014;32;39828;-84
2023/12/15 16:49:19;;;;;;;4.53;3.28;;;;;;;4.70;45.65;101444.94;7711108;32;37737;-84
2023/12/15 16:53:36;;;;;;;5.55;3.35;;;;;;;4.95;45.11;101449.97;7710711;32;36875;-83
2023/12/15 16:57:55;;;;;;;5.43;3.40;;;;;;;4.82;44.89;101461.47;7736262;32;39518;-84
2023/12/15 17:02:11;;;;;;;5.00;3.58;;;;;;;4.86;44.03;101461.91;7737263;32;40743;-83
2023/12/15 17:06:28;;;;;;;5.53;3.10;;;;;;;4.69;45.83;101466.72;7736679;32;37846;-83
2023/12/15 17:10:47;;;;;;;4.93;3.40;;;;;;;4.66;46.07;101467.13;7735126;32;37031;-83
2023/12/15 17:15:04;;;;;;;6.00;3.85;;;;;;;4.50;47.29;101482.53;7736226;32;39902;-83
2023/12/15 17:19:21;;;;;;;9.55;4.97;;;;;;;4.54;45.50;101484.87;7735699;32;40070;-83
2023/12/15 17:23:39;;;;;;;8.45;4.93;;;;;;;4.41;45.45;101491.75;7736261;32;38614;-83
2023/12/15 17:27:55;;;;;;;8.20;4.50;;;;;;;4.70;45.67;101490.03;7736577;32;37727;-83
2023/12/15 17:32:12;;;;;;;5.80;4.03;;;;;;;4.32;47.89;101490.22;7737215;32;40088;-83
2023/12/15 17:36:28;;;;;;;6.50;3.95;;;;;;;4.35;48.55;101506.03;7737090;32;40760;-83
2023/12/15 17:40:44;;;;;;;6.10;4.00;;;;;;;4.47;46.75;101512.63;7737246;32;37922;-83
2023/12/15 17:45:00;;;;;;;5.47;4.03;;;;;;;4.13;46.87;101521.31;7736085;32;37032;-83
2023/12/15 17:49:17;;;;;;;7.55;4.93;;;;;;;4.12;48.44;101519.62;7737546;32;40128;-84
2023/12/15 17:53:33;;;;;;;10.85;6.20;;;;;;;4.29;48.38;101525.69;7737310;32;40722;-83
2023/12/15 17:57:50;;;;;;;11.50;6.55;;;;;;;4.01;49.31;101539.84;7736941;32;38838;-83
2023/12/15 18:02:06;;;;;;;11.60;5.95;;;;;;;4.02;49.39;101530.72;7736325;32;37948;-82
2023/12/15 18:06:23;;;;;;;12.30;6.93;;;;;;;4.05;50.55;101541.16;7731262;32;38033;-83
2023/12/15 18:10:39;;;;;;;12.65;6.85;;;;;;;3.93;50.78;101548.03;7727818;32;39904;-82
2023/12/15 18:14:56;;;;;;;11.93;6.78;;;;;;;4.00;50.79;101559.78;7733136;32;37809;-83
2023/12/15 18:19:16;;;;;;;10.85;6.65;;;;;;;4.00;50.20;101554.38;7736563;32;37369;-85
2023/12/15 18:23:32;;;;;;;13.13;7.62;;;;;;;3.74;50.80;101560.19;7746429;32;39479;-84
2023/12/15 18:27:49;;;;;;;17.87;7.97;;;;;;;4.09;50.60;101558.66;7720183;32;40736;-85
2023/12/15 18:32:05;;;;;;;15.80;7.75;;;;;;;4.27;50.71;101560.13;7733807;32;37770;-83
2023/12/15 18:36:22;;;;;;;15.52;8.48;;;;;;;4.23;51.02;101572.34;7713486;32;37100;-84
2023/12/15 18:40:38;;;;;;;17.30;8.20;;;;;;;4.27;51.23;101571.75;7747218;32;39094;-85
2023/12/15 18:44:55;;;;;;;14.52;9.02;;;;;;;3.97;52.25;101576.34;7737478;32;40731;-82
2023/12/15 18:49:13;;;;;;;17.55;8.85;;;;;;;4.11;52.21;101580.91;7714391;32;38037;-83
2023/12/15 18:53:30;;;;;;;21.15;9.07;;;;;;;3.89;52.60;101598.81;7712849;32;37982;-83
2023/12/15 18:57:46;;;;;;;13.98;8.10;;;;;;;3.88;52.53;101593.59;7712706;32;39344;-85
2023/12/15 19:02:08;;;;;;;14.20;7.95;;;;;;;4.00;51.88;101592.16;7713512;32;39829;-80
2023/12/15 19:06:24;;;;;;;14.23;6.93;;;;;;;3.86;52.99;101595.66;7726029;32;38734;-81
2023/12/15 19:10:41;;;;;;;13.05;8.13;;;;;;;4.02;52.43;101594.66;7725846;32;35570;-82
2023/12/15 19:15:01;;;;;;;14.43;7.55;;;;;;;3.89;52.08;101596.13;7719134;32;39287;-81
2023/12/15 19:19:17;;;;;;;11.95;7.12;;;;;;;3.87;51.81;101602.75;7720854;32;39716;-81
2023/12/15 19:23:34;;;;;;;14.20;7.45;;;;;;;3.87;51.75;101605.44;7736641;32;38738;-83
2023/12/15 19:27:50;;;;;;;10.48;7.15;;;;;;;3.83;51.47;101606.81;7715990;32;37966;-82
2023/12/15 19:32:07;;;;;;;13.88;7.30;;;;;;;3.73;52.09;101607.91;7711484;32;38932;-82
2023/12/15 19:36:23;;;;;;;13.05;7.70;;;;;;;4.01;51.54;101610.00;7711267;32;39953;-83
2023/12/15 19:40:39;;;;;;;14.27;7.37;;;;;;;3.96;51.81;101617.81;7719715;32;37678;-83
2023/12/15 19:44:55;;;;;;;15.70;8.80;;;;;;;4.00;52.09;101618.28;7738458;32;37084;-83
2023/12/15 19:49:12;;;;;;;16.35;7.75;;;;;;;3.86;53.01;101617.25;7738401;32;40035;-83
2023/12/15 19:53:28;;;;;;;11.20;6.53;;;;;;;3.90;52.58;101610.47;7738983;32;40004;-83